sensor_id;sensor_type;location;lat;lon;timestamp;temperature;humidity
69731;SHT31;56996;48.138;11.538;2023-02-12T00:01:22;5.67;60.45
69731;SHT31;56996;48.138;11.538;2023-02-12T00:03:50;5.67;60.39
69731;SHT31;56996;48.138;11.538;2023-02-12T00:06:17;5.67;60.34
69731;SHT31;56996;48.138;11.538;2023-02-12T00:08:47;5.73;60.31
69731;SHT31;56996;48.138;11.538;2023-02-12T00:11:18;5.72;60.62
69731;SHT31;56996;48.138;11.538;2023-02-12T00:13:49;5.68;60.60
69731;SHT31;56996;48.138;11.538;2023-02-12T00:16:18;5.66;60.42
69731;SHT31;56996;48.138;11.538;2023-02-12T00:18:49;5.69;60.36
69731;SHT31;56996;48.138;11.538;2023-02-12T00:21:18;5.73;60.26
69731;SHT31;56996;48.138;11.538;2023-02-12T00:23:45;5.80;60.20
69731;SHT31;56996;48.138;11.538;2023-02-12T00:26:13;5.83;60.54
69731;SHT31;56996;48.138;11.538;2023-02-12T00:28:44;5.77;60.86
69731;SHT31;56996;48.138;11.538;2023-02-12T00:31:16;5.72;61.01
69731;SHT31;56996;48.138;11.538;2023-02-12T00:33:47;5.71;61.13
69731;SHT31;56996;48.138;11.538;2023-02-12T00:36:15;5.66;61.03
69731;SHT31;56996;48.138;11.538;2023-02-12T00:38:45;5.71;60.89
69731;SHT31;56996;48.138;11.538;2023-02-12T00:41:14;5.79;60.72
69731;SHT31;56996;48.138;11.538;2023-02-12T00:43:41;5.79;60.89
69731;SHT31;56996;48.138;11.538;2023-02-12T00:46:08;5.72;60.94
69731;SHT31;56996;48.138;11.538;2023-02-12T00:48:35;5.67;61.12
69731;SHT31;56996;48.138;11.538;2023-02-12T00:51:02;5.62;61.07
69731;SHT31;56996;48.138;11.538;2023-02-12T00:53:30;5.65;60.95
69731;SHT31;56996;48.138;11.538;2023-02-12T00:55:58;5.64;60.96
69731;SHT31;56996;48.138;11.538;2023-02-12T00:58:24;5.64;60.97
69731;SHT31;56996;48.138;11.538;2023-02-12T01:00:52;5.64;61.13
69731;SHT31;56996;48.138;11.538;2023-02-12T01:03:21;5.62;60.97
69731;SHT31;56996;48.138;11.538;2023-02-12T01:05:50;5.62;60.71
69731;SHT31;56996;48.138;11.538;2023-02-12T01:08:19;5.65;60.68
69731;SHT31;56996;48.138;11.538;2023-02-12T01:10:53;5.64;60.67
69731;SHT31;56996;48.138;11.538;2023-02-12T01:13:29;5.67;60.66
69731;SHT31;56996;48.138;11.538;2023-02-12T01:18:44;5.86;60.37
69731;SHT31;56996;48.138;11.538;2023-02-12T01:21:13;5.94;60.36
69731;SHT31;56996;48.138;11.538;2023-02-12T01:23:46;5.84;60.75
69731;SHT31;56996;48.138;11.538;2023-02-12T01:26:14;5.74;60.91
69731;SHT31;56996;48.138;11.538;2023-02-12T01:28:43;5.68;61.14
69731;SHT31;56996;48.138;11.538;2023-02-12T01:31:19;5.62;61.20
69731;SHT31;56996;48.138;11.538;2023-02-12T01:33:50;5.57;61.16
69731;SHT31;56996;48.138;11.538;2023-02-12T01:36:20;5.57;61.24
69731;SHT31;56996;48.138;11.538;2023-02-12T01:38:48;5.63;61.24
69731;SHT31;56996;48.138;11.538;2023-02-12T01:41:17;5.61;61.33
69731;SHT31;56996;48.138;11.538;2023-02-12T01:46:49;5.67;61.20
69731;SHT31;56996;48.138;11.538;2023-02-12T01:49:26;5.67;61.40
69731;SHT31;56996;48.138;11.538;2023-02-12T01:52:07;5.61;61.56
69731;SHT31;56996;48.138;11.538;2023-02-12T01:54:38;5.53;61.89
69731;SHT31;56996;48.138;11.538;2023-02-12T01:57:07;5.48;62.01
69731;SHT31;56996;48.138;11.538;2023-02-12T01:59:36;5.46;61.92
69731;SHT31;56996;48.138;11.538;2023-02-12T02:02:04;5.48;61.88
69731;SHT31;56996;48.138;11.538;2023-02-12T02:04:32;5.52;61.86
69731;SHT31;56996;48.138;11.538;2023-02-12T02:07:06;5.54;61.99
69731;SHT31;56996;48.138;11.538;2023-02-12T02:09:36;5.53;62.01
69731;SHT31;56996;48.138;11.538;2023-02-12T02:12:05;5.59;61.83
69731;SHT31;56996;48.138;11.538;2023-02-12T02:14:56;5.66;61.77
69731;SHT31;56996;48.138;11.538;2023-02-12T02:32:17;5.59;62.51
69731;SHT31;56996;48.138;11.538;2023-02-12T02:35:04;5.56;62.35
69731;SHT31;56996;48.138;11.538;2023-02-12T02:37:44;5.65;62.10
69731;SHT31;56996;48.138;11.538;2023-02-12T02:40:26;5.71;61.85
69731;SHT31;56996;48.138;11.538;2023-02-12T02:43:06;5.75;61.73
69731;SHT31;56996;48.138;11.538;2023-02-12T02:45:42;5.77;61.63
69731;SHT31;56996;48.138;11.538;2023-02-12T02:48:19;5.79;61.51
69731;SHT31;56996;48.138;11.538;2023-02-12T02:50:53;5.76;61.43
69731;SHT31;56996;48.138;11.538;2023-02-12T02:56:18;5.77;61.00
69731;SHT31;56996;48.138;11.538;2023-02-12T02:58:55;5.76;60.99
69731;SHT31;56996;48.138;11.538;2023-02-12T03:01:35;5.78;60.87
69731;SHT31;56996;48.138;11.538;2023-02-12T03:04:30;5.78;60.77
69731;SHT31;56996;48.138;11.538;2023-02-12T03:07:05;5.78;60.77
69731;SHT31;56996;48.138;11.538;2023-02-12T03:09:49;5.77;60.77
69731;SHT31;56996;48.138;11.538;2023-02-12T03:12:27;5.76;60.88
69731;SHT31;56996;48.138;11.538;2023-02-12T03:15:08;5.72;61.08
69731;SHT31;56996;48.138;11.538;2023-02-12T03:17:41;5.73;61.10
69731;SHT31;56996;48.138;11.538;2023-02-12T03:20:14;5.78;61.17
69731;SHT31;56996;48.138;11.538;2023-02-12T03:23:11;5.77;61.19
69731;SHT31;56996;48.138;11.538;2023-02-12T03:25:47;5.77;61.01
69731;SHT31;56996;48.138;11.538;2023-02-12T03:28:33;5.77;60.98
69731;SHT31;56996;48.138;11.538;2023-02-12T03:31:07;5.77;60.96
69731;SHT31;56996;48.138;11.538;2023-02-12T03:34:06;5.78;61.06
69731;SHT31;56996;48.138;11.538;2023-02-12T03:36:57;5.78;61.24
69731;SHT31;56996;48.138;11.538;2023-02-12T03:42:23;5.79;61.63
69731;SHT31;56996;48.138;11.538;2023-02-12T03:45:06;5.77;61.71
69731;SHT31;56996;48.138;11.538;2023-02-12T03:47:45;5.78;61.44
69731;SHT31;56996;48.138;11.538;2023-02-12T03:50:25;5.77;61.22
69731;SHT31;56996;48.138;11.538;2023-02-12T03:53:00;5.77;61.27
69731;SHT31;56996;48.138;11.538;2023-02-12T03:55:27;5.79;61.66
69731;SHT31;56996;48.138;11.538;2023-02-12T03:57:57;5.81;62.14
69731;SHT31;56996;48.138;11.538;2023-02-12T04:00:26;5.82;62.35
69731;SHT31;56996;48.138;11.538;2023-02-12T04:02:53;5.80;62.60
69731;SHT31;56996;48.138;11.538;2023-02-12T04:05:22;5.79;62.68
69731;SHT31;56996;48.138;11.538;2023-02-12T04:07:53;5.81;62.82
69731;SHT31;56996;48.138;11.538;2023-02-12T04:10:33;5.84;63.15
69731;SHT31;56996;48.138;11.538;2023-02-12T04:13:11;5.83;63.23
69731;SHT31;56996;48.138;11.538;2023-02-12T04:16:07;5.85;63.21
69731;SHT31;56996;48.138;11.538;2023-02-12T04:19:33;5.87;63.33
69731;SHT31;56996;48.138;11.538;2023-02-12T04:29:15;5.90;64.36
69731;SHT31;56996;48.138;11.538;2023-02-12T04:32:19;5.92;64.50
69731;SHT31;56996;48.138;11.538;2023-02-12T04:37:42;5.96;64.71
69731;SHT31;56996;48.138;11.538;2023-02-12T04:40:38;5.86;66.26
69731;SHT31;56996;48.138;11.538;2023-02-12T04:43:09;5.72;66.46
69731;SHT31;56996;48.138;11.538;2023-02-12T04:45:36;5.72;66.58
69731;SHT31;56996;48.138;11.538;2023-02-12T04:48:03;5.75;66.69
69731;SHT31;56996;48.138;11.538;2023-02-12T04:50:49;5.78;66.75
69731;SHT31;56996;48.138;11.538;2023-02-12T04:53:15;5.77;66.84
69731;SHT31;56996;48.138;11.538;2023-02-12T04:55:42;5.78;67.05
69731;SHT31;56996;48.138;11.538;2023-02-12T04:58:09;5.78;67.31
69731;SHT31;56996;48.138;11.538;2023-02-12T05:00:36;5.79;67.17
69731;SHT31;56996;48.138;11.538;2023-02-12T05:03:03;5.80;66.76
69731;SHT31;56996;48.138;11.538;2023-02-12T05:05:30;5.80;66.89
69731;SHT31;56996;48.138;11.538;2023-02-12T05:07:57;5.80;66.46
69731;SHT31;56996;48.138;11.538;2023-02-12T05:10:24;5.80;66.12
69731;SHT31;56996;48.138;11.538;2023-02-12T05:12:51;5.79;65.59
69731;SHT31;56996;48.138;11.538;2023-02-12T05:15:19;5.77;65.32
69731;SHT31;56996;48.138;11.538;2023-02-12T05:17:46;5.71;65.26
69731;SHT31;56996;48.138;11.538;2023-02-12T05:20:13;5.67;65.38
69731;SHT31;56996;48.138;11.538;2023-02-12T05:22:40;5.67;65.25
69731;SHT31;56996;48.138;11.538;2023-02-12T05:25:07;5.68;65.14
69731;SHT31;56996;48.138;11.538;2023-02-12T05:27:33;5.69;65.03
69731;SHT31;56996;48.138;11.538;2023-02-12T05:30:00;5.69;65.01
69731;SHT31;56996;48.138;11.538;2023-02-12T05:32:28;5.68;64.99
69731;SHT31;56996;48.138;11.538;2023-02-12T05:34:54;5.70;64.90
69731;SHT31;56996;48.138;11.538;2023-02-12T05:37:21;5.70;64.90
69731;SHT31;56996;48.138;11.538;2023-02-12T05:39:48;5.70;64.90
69731;SHT31;56996;48.138;11.538;2023-02-12T05:42:15;5.69;64.94
69731;SHT31;56996;48.138;11.538;2023-02-12T05:44:42;5.69;65.01
69731;SHT31;56996;48.138;11.538;2023-02-12T05:47:09;5.69;65.08
69731;SHT31;56996;48.138;11.538;2023-02-12T05:49:36;5.67;65.17
69731;SHT31;56996;48.138;11.538;2023-02-12T05:52:02;5.67;65.24
69731;SHT31;56996;48.138;11.538;2023-02-12T05:54:29;5.68;65.18
69731;SHT31;56996;48.138;11.538;2023-02-12T05:56:56;5.68;65.21
69731;SHT31;56996;48.138;11.538;2023-02-12T05:59:23;5.65;65.46
69731;SHT31;56996;48.138;11.538;2023-02-12T06:01:50;5.55;66.17
69731;SHT31;56996;48.138;11.538;2023-02-12T06:04:19;5.40;67.45
69731;SHT31;56996;48.138;11.538;2023-02-12T06:06:52;5.26;67.32
69731;SHT31;56996;48.138;11.538;2023-02-12T06:09:21;5.18;68.20
69731;SHT31;56996;48.138;11.538;2023-02-12T06:11:48;5.10;69.11
69731;SHT31;56996;48.138;11.538;2023-02-12T06:14:15;5.03;71.57
69731;SHT31;56996;48.138;11.538;2023-02-12T06:16:45;4.92;71.37
69731;SHT31;56996;48.138;11.538;2023-02-12T06:19:14;4.89;71.23
69731;SHT31;56996;48.138;11.538;2023-02-12T06:21:41;4.86;71.96
69731;SHT31;56996;48.138;11.538;2023-02-12T06:24:09;4.85;72.08
69731;SHT31;56996;48.138;11.538;2023-02-12T06:26:39;4.85;72.35
69731;SHT31;56996;48.138;11.538;2023-02-12T06:29:05;4.86;72.23
69731;SHT31;56996;48.138;11.538;2023-02-12T06:31:33;4.93;72.18
69731;SHT31;56996;48.138;11.538;2023-02-12T06:34:03;5.03;72.01
69731;SHT31;56996;48.138;11.538;2023-02-12T06:36:33;5.00;72.43
69731;SHT31;56996;48.138;11.538;2023-02-12T06:39:03;4.97;72.57
69731;SHT31;56996;48.138;11.538;2023-02-12T06:41:31;5.03;72.61
69731;SHT31;56996;48.138;11.538;2023-02-12T06:43:58;5.12;72.66
69731;SHT31;56996;48.138;11.538;2023-02-12T06:46:25;5.18;72.72
69731;SHT31;56996;48.138;11.538;2023-02-12T06:48:52;5.25;72.90
69731;SHT31;56996;48.138;11.538;2023-02-12T06:51:24;5.30;73.04
69731;SHT31;56996;48.138;11.538;2023-02-12T06:53:52;5.33;73.24
69731;SHT31;56996;48.138;11.538;2023-02-12T06:56:20;5.27;74.22
69731;SHT31;56996;48.138;11.538;2023-02-12T06:58:56;5.10;74.85
69731;SHT31;56996;48.138;11.538;2023-02-12T07:01:27;4.99;75.49
69731;SHT31;56996;48.138;11.538;2023-02-12T07:03:58;4.91;75.87
69731;SHT31;56996;48.138;11.538;2023-02-12T07:06:28;4.84;76.27
69731;SHT31;56996;48.138;11.538;2023-02-12T07:08:59;4.83;76.20
69731;SHT31;56996;48.138;11.538;2023-02-12T07:11:28;4.89;76.19
69731;SHT31;56996;48.138;11.538;2023-02-12T07:14:03;4.92;76.28
69731;SHT31;56996;48.138;11.538;2023-02-12T07:16:29;4.97;76.46
69731;SHT31;56996;48.138;11.538;2023-02-12T07:18:56;5.06;76.36
69731;SHT31;56996;48.138;11.538;2023-02-12T07:21:23;5.16;76.20
69731;SHT31;56996;48.138;11.538;2023-02-12T07:23:50;5.26;76.04
69731;SHT31;56996;48.138;11.538;2023-02-12T07:26:18;5.34;75.80
69731;SHT31;56996;48.138;11.538;2023-02-12T07:28:47;5.40;75.50
69731;SHT31;56996;48.138;11.538;2023-02-12T07:31:17;5.45;75.24
69731;SHT31;56996;48.138;11.538;2023-02-12T07:33:46;5.49;75.12
69731;SHT31;56996;48.138;11.538;2023-02-12T07:36:15;5.53;74.93
69731;SHT31;56996;48.138;11.538;2023-02-12T07:38:44;5.59;74.78
69731;SHT31;56996;48.138;11.538;2023-02-12T07:41:12;5.63;74.59
69731;SHT31;56996;48.138;11.538;2023-02-12T07:43:51;5.68;74.39
69731;SHT31;56996;48.138;11.538;2023-02-12T07:46:22;5.71;74.17
69731;SHT31;56996;48.138;11.538;2023-02-12T07:48:56;5.76;73.97
69731;SHT31;56996;48.138;11.538;2023-02-12T07:51:25;5.78;73.73
69731;SHT31;56996;48.138;11.538;2023-02-12T07:53:53;5.82;73.61
69731;SHT31;56996;48.138;11.538;2023-02-12T07:56:21;5.89;73.43
69731;SHT31;56996;48.138;11.538;2023-02-12T07:58:50;5.95;73.32
69731;SHT31;56996;48.138;11.538;2023-02-12T08:01:20;6.00;73.18
69731;SHT31;56996;48.138;11.538;2023-02-12T08:03:49;6.02;73.05
69731;SHT31;56996;48.138;11.538;2023-02-12T08:06:18;6.03;73.06
69731;SHT31;56996;48.138;11.538;2023-02-12T08:08:52;6.08;72.99
69731;SHT31;56996;48.138;11.538;2023-02-12T08:11:21;6.14;72.76
69731;SHT31;56996;48.138;11.538;2023-02-12T08:13:49;6.17;72.51
69731;SHT31;56996;48.138;11.538;2023-02-12T08:16:17;6.21;72.30
69731;SHT31;56996;48.138;11.538;2023-02-12T08:18:49;6.27;72.14
69731;SHT31;56996;48.138;11.538;2023-02-12T08:21:21;6.28;72.09
69731;SHT31;56996;48.138;11.538;2023-02-12T08:23:52;6.30;72.02
69731;SHT31;56996;48.138;11.538;2023-02-12T08:26:24;6.31;72.16
69731;SHT31;56996;48.138;11.538;2023-02-12T08:28:55;6.28;72.37
69731;SHT31;56996;48.138;11.538;2023-02-12T08:31:28;6.18;72.66
69731;SHT31;56996;48.138;11.538;2023-02-12T08:33:59;6.15;72.80
69731;SHT31;56996;48.138;11.538;2023-02-12T08:36:27;6.18;72.87
69731;SHT31;56996;48.138;11.538;2023-02-12T08:39:00;6.20;72.87
69731;SHT31;56996;48.138;11.538;2023-02-12T08:41:27;6.31;72.68
69731;SHT31;56996;48.138;11.538;2023-02-12T08:43:56;6.42;72.35
69731;SHT31;56996;48.138;11.538;2023-02-12T08:46:26;6.48;72.06
69731;SHT31;56996;48.138;11.538;2023-02-12T08:48:56;6.54;71.94
69731;SHT31;56996;48.138;11.538;2023-02-12T08:51:29;6.59;71.77
69731;SHT31;56996;48.138;11.538;2023-02-12T08:54:00;6.66;71.35
69731;SHT31;56996;48.138;11.538;2023-02-12T08:56:31;6.72;71.01
69731;SHT31;56996;48.138;11.538;2023-02-12T08:58:59;6.77;70.71
69731;SHT31;56996;48.138;11.538;2023-02-12T09:01:30;6.83;70.24
69731;SHT31;56996;48.138;11.538;2023-02-12T09:03:59;6.87;69.97
69731;SHT31;56996;48.138;11.538;2023-02-12T09:06:26;6.91;69.90
69731;SHT31;56996;48.138;11.538;2023-02-12T09:08:54;6.98;69.80
69731;SHT31;56996;48.138;11.538;2023-02-12T09:11:21;7.04;69.62
69731;SHT31;56996;48.138;11.538;2023-02-12T09:14:05;7.09;69.45
69731;SHT31;56996;48.138;11.538;2023-02-12T09:16:36;7.15;69.30
69731;SHT31;56996;48.138;11.538;2023-02-12T09:19:06;7.15;68.88
69731;SHT31;56996;48.138;11.538;2023-02-12T09:21:34;6.93;69.14
69731;SHT31;56996;48.138;11.538;2023-02-12T09:24:01;6.74;69.44
69731;SHT31;56996;48.138;11.538;2023-02-12T09:26:28;6.61;69.70
69731;SHT31;56996;48.138;11.538;2023-02-12T09:28:56;6.59;69.87
69731;SHT31;56996;48.138;11.538;2023-02-12T09:31:24;6.60;69.99
69731;SHT31;56996;48.138;11.538;2023-02-12T09:33:58;6.60;70.34
69731;SHT31;56996;48.138;11.538;2023-02-12T09:36:28;6.62;70.39
69731;SHT31;56996;48.138;11.538;2023-02-12T09:38:56;6.68;70.42
69731;SHT31;56996;48.138;11.538;2023-02-12T09:44:43;6.82;70.92
69731;SHT31;56996;48.138;11.538;2023-02-12T09:47:55;6.84;71.43
69731;SHT31;56996;48.138;11.538;2023-02-12T09:53:12;7.10;70.78
69731;SHT31;56996;48.138;11.538;2023-02-12T09:55:42;7.17;70.91
69731;SHT31;56996;48.138;11.538;2023-02-12T09:58:11;7.19;71.04
69731;SHT31;56996;48.138;11.538;2023-02-12T10:00:54;7.25;70.29
69731;SHT31;56996;48.138;11.538;2023-02-12T10:03:20;7.39;69.77
69731;SHT31;56996;48.138;11.538;2023-02-12T10:13:57;7.99;67.55
69731;SHT31;56996;48.138;11.538;2023-02-12T10:25:57;8.46;65.98
69731;SHT31;56996;48.138;11.538;2023-02-12T10:28:47;8.48;65.67
69731;SHT31;56996;48.138;11.538;2023-02-12T10:31:34;8.50;65.43
69731;SHT31;56996;48.138;11.538;2023-02-12T10:34:29;8.62;65.30
69731;SHT31;56996;48.138;11.538;2023-02-12T10:37:04;8.86;64.65
69731;SHT31;56996;48.138;11.538;2023-02-12T10:39:45;9.06;64.33
69731;SHT31;56996;48.138;11.538;2023-02-12T10:45:13;9.50;62.38
69731;SHT31;56996;48.138;11.538;2023-02-12T10:47:46;10.03;61.26
69731;SHT31;56996;48.138;11.538;2023-02-12T10:50:21;11.13;60.28
69731;SHT31;56996;48.138;11.538;2023-02-12T10:52:59;12.39;58.07
69731;SHT31;56996;48.138;11.538;2023-02-12T10:57:59;13.32;52.09
69731;SHT31;56996;48.138;11.538;2023-02-12T11:00:32;12.91;53.34
69731;SHT31;56996;48.138;11.538;2023-02-12T11:05:39;12.41;54.35
69731;SHT31;56996;48.138;11.538;2023-02-12T11:13:27;12.19;54.77
69731;SHT31;56996;48.138;11.538;2023-02-12T11:15:55;11.99;55.11
69731;SHT31;56996;48.138;11.538;2023-02-12T11:18:22;11.86;54.84
69731;SHT31;56996;48.138;11.538;2023-02-12T11:20:57;11.53;54.97
69731;SHT31;56996;48.138;11.538;2023-02-12T11:23:29;11.26;55.68
69731;SHT31;56996;48.138;11.538;2023-02-12T11:28:52;10.59;57.70
69731;SHT31;56996;48.138;11.538;2023-02-12T11:31:30;10.57;58.02
69731;SHT31;56996;48.138;11.538;2023-02-12T11:34:17;10.59;58.04
69731;SHT31;56996;48.138;11.538;2023-02-12T11:36:46;10.52;57.95
69731;SHT31;56996;48.138;11.538;2023-02-12T11:39:29;10.29;58.18
69731;SHT31;56996;48.138;11.538;2023-02-12T11:42:00;10.20;58.50
69731;SHT31;56996;48.138;11.538;2023-02-12T11:44:32;10.17;58.65
69731;SHT31;56996;48.138;11.538;2023-02-12T11:47:04;10.13;58.67
69731;SHT31;56996;48.138;11.538;2023-02-12T11:49:41;10.06;58.77
69731;SHT31;56996;48.138;11.538;2023-02-12T11:52:22;10.03;58.97
69731;SHT31;56996;48.138;11.538;2023-02-12T11:54:56;10.02;58.97
69731;SHT31;56996;48.138;11.538;2023-02-12T11:58:29;9.94;59.17
69731;SHT31;56996;48.138;11.538;2023-02-12T12:00:36;9.83;59.57
69731;SHT31;56996;48.138;11.538;2023-02-12T12:03:20;9.74;59.35
69731;SHT31;56996;48.138;11.538;2023-02-12T12:09:00;9.64;60.13
69731;SHT31;56996;48.138;11.538;2023-02-12T12:11:58;9.59;60.47
69731;SHT31;56996;48.138;11.538;2023-02-12T12:14:46;9.54;60.37
69731;SHT31;56996;48.138;11.538;2023-02-12T12:17:44;9.62;59.91
69731;SHT31;56996;48.138;11.538;2023-02-12T12:20:40;9.64;59.68
69731;SHT31;56996;48.138;11.538;2023-02-12T12:25:48;9.69;59.44
69731;SHT31;56996;48.138;11.538;2023-02-12T12:31:17;9.64;59.79
69731;SHT31;56996;48.138;11.538;2023-02-12T12:43:12;9.93;59.67
69731;SHT31;56996;48.138;11.538;2023-02-12T12:49:16;9.93;59.60
69731;SHT31;56996;48.138;11.538;2023-02-12T12:55:30;9.97;59.43
69731;SHT31;56996;48.138;11.538;2023-02-12T13:07:16;10.30;58.82
69731;SHT31;56996;48.138;11.538;2023-02-12T13:13:17;10.56;58.54
69731;SHT31;56996;48.138;11.538;2023-02-12T13:18:34;10.49;58.72
69731;SHT31;56996;48.138;11.538;2023-02-12T13:24:02;10.44;58.87
69731;SHT31;56996;48.138;11.538;2023-02-12T13:27:06;10.53;58.73
69731;SHT31;56996;48.138;11.538;2023-02-12T13:29:48;10.54;58.56
69731;SHT31;56996;48.138;11.538;2023-02-12T13:32:26;10.47;58.62
69731;SHT31;56996;48.138;11.538;2023-02-12T13:34:55;10.41;58.76
69731;SHT31;56996;48.138;11.538;2023-02-12T13:37:31;10.33;58.85
69731;SHT31;56996;48.138;11.538;2023-02-12T13:40:06;10.24;58.99
69731;SHT31;56996;48.138;11.538;2023-02-12T13:51:55;10.15;59.32
69731;SHT31;56996;48.138;11.538;2023-02-12T13:57:19;10.11;59.92
69731;SHT31;56996;48.138;11.538;2023-02-12T13:59:56;10.19;59.78
69731;SHT31;56996;48.138;11.538;2023-02-12T14:02:25;10.18;59.80
69731;SHT31;56996;48.138;11.538;2023-02-12T14:05:13;10.02;59.85
69731;SHT31;56996;48.138;11.538;2023-02-12T14:10:32;10.01;59.83
69731;SHT31;56996;48.138;11.538;2023-02-12T14:15:47;9.93;60.15
69731;SHT31;56996;48.138;11.538;2023-02-12T14:18:28;9.88;60.33
69731;SHT31;56996;48.138;11.538;2023-02-12T14:23:37;9.61;60.86
69731;SHT31;56996;48.138;11.538;2023-02-12T14:26:08;9.47;61.15
69731;SHT31;56996;48.138;11.538;2023-02-12T14:28:49;9.36;61.28
69731;SHT31;56996;48.138;11.538;2023-02-12T14:31:33;9.29;61.18
69731;SHT31;56996;48.138;11.538;2023-02-12T14:39:26;9.31;61.33
69731;SHT31;56996;48.138;11.538;2023-02-12T14:42:40;9.30;61.59
69731;SHT31;56996;48.138;11.538;2023-02-12T14:44:45;9.23;62.33
69731;SHT31;56996;48.138;11.538;2023-02-12T14:49:54;9.13;62.85
69731;SHT31;56996;48.138;11.538;2023-02-12T14:52:31;9.06;62.74
69731;SHT31;56996;48.138;11.538;2023-02-12T14:55:04;8.96;62.88
69731;SHT31;56996;48.138;11.538;2023-02-12T14:57:45;8.88;63.51
69731;SHT31;56996;48.138;11.538;2023-02-12T15:02:44;8.77;63.96
69731;SHT31;56996;48.138;11.538;2023-02-12T15:05:23;8.73;64.00
69731;SHT31;56996;48.138;11.538;2023-02-12T15:13:59;8.53;64.70
69731;SHT31;56996;48.138;11.538;2023-02-12T15:22:35;8.35;65.38
69731;SHT31;56996;48.138;11.538;2023-02-12T15:28:20;8.36;64.77
69731;SHT31;56996;48.138;11.538;2023-02-12T15:30:59;8.30;64.75
69731;SHT31;56996;48.138;11.538;2023-02-12T15:33:31;8.26;64.80
69731;SHT31;56996;48.138;11.538;2023-02-12T15:36:01;8.22;65.01
69731;SHT31;56996;48.138;11.538;2023-02-12T15:41:07;8.13;66.36
69731;SHT31;56996;48.138;11.538;2023-02-12T15:43:48;8.04;66.80
69731;SHT31;56996;48.138;11.538;2023-02-12T15:46:15;7.98;66.60
69731;SHT31;56996;48.138;11.538;2023-02-12T15:48:43;7.95;66.66
69731;SHT31;56996;48.138;11.538;2023-02-12T15:54:10;7.91;66.58
69731;SHT31;56996;48.138;11.538;2023-02-12T15:56:43;7.89;66.62
69731;SHT31;56996;48.138;11.538;2023-02-12T15:59:17;7.83;66.68
69731;SHT31;56996;48.138;11.538;2023-02-12T16:01:55;7.76;66.68
69731;SHT31;56996;48.138;11.538;2023-02-12T16:04:32;7.64;66.82
69731;SHT31;56996;48.138;11.538;2023-02-12T16:07:08;7.55;66.94
69731;SHT31;56996;48.138;11.538;2023-02-12T16:09:36;7.48;67.24
69731;SHT31;56996;48.138;11.538;2023-02-12T16:12:04;7.41;67.73
69731;SHT31;56996;48.138;11.538;2023-02-12T16:14:42;7.36;67.78
69731;SHT31;56996;48.138;11.538;2023-02-12T16:17:28;7.31;67.92
69731;SHT31;56996;48.138;11.538;2023-02-12T16:20:04;7.28;67.90
69731;SHT31;56996;48.138;11.538;2023-02-12T16:22:41;7.26;68.11
69731;SHT31;56996;48.138;11.538;2023-02-12T16:25:31;7.22;68.11
69731;SHT31;56996;48.138;11.538;2023-02-12T16:28:00;7.19;68.50
69731;SHT31;56996;48.138;11.538;2023-02-12T16:30:30;7.16;68.64
69731;SHT31;56996;48.138;11.538;2023-02-12T16:33:00;7.13;69.05
69731;SHT31;56996;48.138;11.538;2023-02-12T16:35:31;7.08;69.25
69731;SHT31;56996;48.138;11.538;2023-02-12T16:38:02;7.03;69.69
69731;SHT31;56996;48.138;11.538;2023-02-12T16:46:27;6.96;69.82
69731;SHT31;56996;48.138;11.538;2023-02-12T16:48:57;6.91;69.93
69731;SHT31;56996;48.138;11.538;2023-02-12T16:51:27;6.87;70.16
69731;SHT31;56996;48.138;11.538;2023-02-12T16:53:58;6.84;70.13
69731;SHT31;56996;48.138;11.538;2023-02-12T16:56:29;6.82;70.27
69731;SHT31;56996;48.138;11.538;2023-02-12T16:59:00;6.79;70.39
69731;SHT31;56996;48.138;11.538;2023-02-12T17:01:29;6.73;70.86
69731;SHT31;56996;48.138;11.538;2023-02-12T17:04:00;6.64;70.93
69731;SHT31;56996;48.138;11.538;2023-02-12T17:06:34;6.59;71.29
69731;SHT31;56996;48.138;11.538;2023-02-12T17:09:01;6.53;71.26
69731;SHT31;56996;48.138;11.538;2023-02-12T17:11:28;6.49;71.15
69731;SHT31;56996;48.138;11.538;2023-02-12T17:13:55;6.46;71.28
69731;SHT31;56996;48.138;11.538;2023-02-12T17:16:22;6.45;71.11
69731;SHT31;56996;48.138;11.538;2023-02-12T17:18:58;6.44;71.08
69731;SHT31;56996;48.138;11.538;2023-02-12T17:21:29;6.39;71.30
69731;SHT31;56996;48.138;11.538;2023-02-12T17:26:50;6.34;71.54
69731;SHT31;56996;48.138;11.538;2023-02-12T17:29:18;6.32;71.67
69731;SHT31;56996;48.138;11.538;2023-02-12T17:31:47;6.28;71.84
69731;SHT31;56996;48.138;11.538;2023-02-12T17:34:15;6.26;72.09
69731;SHT31;56996;48.138;11.538;2023-02-12T17:36:42;6.24;72.28
69731;SHT31;56996;48.138;11.538;2023-02-12T17:39:10;6.20;72.57
69731;SHT31;56996;48.138;11.538;2023-02-12T17:41:38;6.19;72.64
69731;SHT31;56996;48.138;11.538;2023-02-12T17:44:06;6.15;72.89
69731;SHT31;56996;48.138;11.538;2023-02-12T17:46:33;6.11;73.04
69731;SHT31;56996;48.138;11.538;2023-02-12T17:49:00;6.09;73.03
69731;SHT31;56996;48.138;11.538;2023-02-12T17:51:27;6.08;73.19
69731;SHT31;56996;48.138;11.538;2023-02-12T17:53:54;6.05;73.30
69731;SHT31;56996;48.138;11.538;2023-02-12T17:56:21;6.02;73.56
69731;SHT31;56996;48.138;11.538;2023-02-12T17:58:51;5.97;73.61
69731;SHT31;56996;48.138;11.538;2023-02-12T18:01:19;5.93;73.82
69731;SHT31;56996;48.138;11.538;2023-02-12T18:03:48;5.89;74.21
69731;SHT31;56996;48.138;11.538;2023-02-12T18:06:22;5.82;74.50
69731;SHT31;56996;48.138;11.538;2023-02-12T18:08:51;5.76;74.60
69731;SHT31;56996;48.138;11.538;2023-02-12T18:11:19;5.69;74.85
69731;SHT31;56996;48.138;11.538;2023-02-12T18:13:46;5.64;75.12
69731;SHT31;56996;48.138;11.538;2023-02-12T18:16:13;5.60;74.98
69731;SHT31;56996;48.138;11.538;2023-02-12T18:18:40;5.60;74.99
69731;SHT31;56996;48.138;11.538;2023-02-12T18:21:07;5.58;75.42
69731;SHT31;56996;48.138;11.538;2023-02-12T18:23:37;5.53;75.65
69731;SHT31;56996;48.138;11.538;2023-02-12T18:26:04;5.47;75.91
69731;SHT31;56996;48.138;11.538;2023-02-12T18:28:33;5.45;76.00
69731;SHT31;56996;48.138;11.538;2023-02-12T18:31:00;5.41;76.07
69731;SHT31;56996;48.138;11.538;2023-02-12T18:33:28;5.38;76.19
69731;SHT31;56996;48.138;11.538;2023-02-12T18:35:55;5.35;76.37
69731;SHT31;56996;48.138;11.538;2023-02-12T18:38:30;5.29;76.51
69731;SHT31;56996;48.138;11.538;2023-02-12T18:40:57;5.27;76.50
69731;SHT31;56996;48.138;11.538;2023-02-12T18:43:26;5.23;76.54
69731;SHT31;56996;48.138;11.538;2023-02-12T18:45:53;5.20;76.69
69731;SHT31;56996;48.138;11.538;2023-02-12T18:48:20;5.14;77.29
69731;SHT31;56996;48.138;11.538;2023-02-12T18:50:47;5.10;77.20
69731;SHT31;56996;48.138;11.538;2023-02-12T18:53:17;5.05;77.21
69731;SHT31;56996;48.138;11.538;2023-02-12T18:55:44;5.02;77.20
69731;SHT31;56996;48.138;11.538;2023-02-12T18:58:11;5.00;77.29
69731;SHT31;56996;48.138;11.538;2023-02-12T19:00:38;4.98;77.15
69731;SHT31;56996;48.138;11.538;2023-02-12T19:03:05;4.97;77.22